Branch, Wisconsin
Current Conditions -  °F | °C
As of 9:56 PM on Tuesday 27 Jan 2015 (Local Time) from KMTW Reporting Station
Scattered Clouds Scattered Clouds  
Wind Chill: 25°   Ceiling: Unl
Heat Index: 25°   Visibility: 10mi
Dew Point: 18°   Wind: 3mph
Humidity: 75%   Direction: 160°SSE
Pressure: 30.25"   Gusts: NA
Location:  44.15°N, 87.76°W
Report Text: KMTW 280356Z AUTO 16003KT 10SM SCT024 M04/M08 A3025 RMK AO2 SLP268 T10391078 FZRANO
Loading
Personal Weather Stations






























Interactive Weather Map New forecast layout! Learn more

10-Day Weather Forecast

Advertisements
Track Severe Weather on mobile